Time;durP1;ratioP1;P1;durP2;ratioP2;P2;SDS_P1;SDS_P2;PMS_P1;PMS_P2;Temp;Humidity;BMP_temperature;BMP_pressure;BME280_temperature;BME280_humidity;BME280_pressure;Samples;Min_cycle;Max_cycle;Signal;HPM_P1;HPM_P2
2024/02/16 00:01:30;;;;;;;16.27;8.73;;;;;;;;;;5011958;28;20026;-57
2024/02/16 00:03:55;;;;;;;16.55;8.52;;;;;;;;;;5012121;28;20037;-57
2024/02/16 00:06:20;;;;;;;14.45;7.63;;;;;;;;;;5011953;28;20469;-57
2024/02/16 00:08:45;;;;;;;17.25;8.88;;;;;;;;;;5011990;28;20024;-58
2024/02/16 00:11:11;;;;;;;17.50;8.20;;;;;;;;;;5012276;28;20034;-56
2024/02/16 00:13:37;;;;;;;19.08;9.40;;;;;;;;;;5017418;28;20462;-57
2024/02/16 00:16:02;;;;;;;19.20;9.05;;;;;;;;;;5011989;28;20025;-57
2024/02/16 00:18:27;;;;;;;17.90;7.97;;;;;;;;;;4997720;28;20030;-58
2024/02/16 00:20:52;;;;;;;19.08;8.82;;;;;;;;;;4992077;28;20033;-57
2024/02/16 00:23:22;;;;;;;16.63;8.50;;;;;;;;;;4992035;28;20018;-57
2024/02/16 00:25:47;;;;;;;16.40;8.57;;;;;;;;;;5012461;28;20208;-57
2024/02/16 00:28:12;;;;;;;17.17;8.38;;;;;;;;;;5007530;28;20047;-58
2024/02/16 00:30:38;;;;;;;17.15;9.18;;;;;;;;;;4999188;28;20029;-58
2024/02/16 00:33:03;;;;;;;17.10;9.00;;;;;;;;;;5012244;28;20030;-57
2024/02/16 00:35:31;;;;;;;15.97;8.90;;;;;;;;;;5011372;28;20022;-57
2024/02/16 00:37:58;;;;;;;17.00;8.13;;;;;;;;;;5010281;28;20076;-57
2024/02/16 00:40:23;;;;;;;16.45;8.80;;;;;;;;;;5011599;28;20021;-58
2024/02/16 00:42:48;;;;;;;15.35;8.32;;;;;;;;;;5011079;28;20028;-57
2024/02/16 00:45:13;;;;;;;15.55;8.20;;;;;;;;;;5012464;28;20049;-57
2024/02/16 00:47:39;;;;;;;14.85;7.93;;;;;;;;;;5015297;28;20359;-58
2024/02/16 00:50:05;;;;;;;17.70;9.25;;;;;;;;;;5015129;28;20026;-58
2024/02/16 00:52:30;;;;;;;17.02;9.35;;;;;;;;;;5014175;28;20067;-59
2024/02/16 00:54:55;;;;;;;18.35;8.38;;;;;;;;;;5014584;28;20474;-57
2024/02/16 00:57:20;;;;;;;17.47;8.93;;;;;;;;;;5010360;28;20026;-57
2024/02/16 00:59:46;;;;;;;18.70;9.33;;;;;;;;;;5011080;28;20025;-57
2024/02/16 01:02:11;;;;;;;16.77;8.27;;;;;;;;;;5011281;28;20497;-58
2024/02/16 01:04:36;;;;;;;15.68;8.75;;;;;;;;;;5009333;28;20452;-58
2024/02/16 01:07:02;;;;;;;15.63;8.17;;;;;;;;;;5009380;28;20044;-58
2024/02/16 01:09:28;;;;;;;17.30;8.82;;;;;;;;;;5012266;28;20033;-58
2024/02/16 01:11:53;;;;;;;16.08;8.52;;;;;;;;;;5010764;28;20037;-58
2024/02/16 01:14:18;;;;;;;18.33;9.07;;;;;;;;;;5010941;28;20057;-58
2024/02/16 01:16:43;;;;;;;18.17;8.40;;;;;;;;;;5018506;28;20036;-57
2024/02/16 01:19:09;;;;;;;16.93;8.17;;;;;;;;;;5010911;28;20033;-58
2024/02/16 01:21:34;;;;;;;19.33;9.35;;;;;;;;;;5011512;28;20022;-59
2024/02/16 01:24:00;;;;;;;19.83;9.13;;;;;;;;;;4995602;28;20474;-58
2024/02/16 01:26:26;;;;;;;17.80;9.68;;;;;;;;;;5012068;28;20037;-56
2024/02/16 01:28:51;;;;;;;20.95;9.52;;;;;;;;;;5011930;28;20072;-59
2024/02/16 01:31:16;;;;;;;18.50;10.03;;;;;;;;;;5010726;28;20179;-57
2024/02/16 01:33:41;;;;;;;18.73;9.98;;;;;;;;;;5012438;28;20017;-57
2024/02/16 01:36:06;;;;;;;17.80;9.50;;;;;;;;;;5021567;28;20116;-58
2024/02/16 01:38:32;;;;;;;18.07;9.50;;;;;;;;;;5009194;28;20035;-57
2024/02/16 01:40:57;;;;;;;18.83;10.07;;;;;;;;;;4991412;28;20037;-57
2024/02/16 01:43:22;;;;;;;17.20;9.30;;;;;;;;;;4996358;28;20022;-56
2024/02/16 01:45:47;;;;;;;19.42;10.23;;;;;;;;;;5010347;28;20037;-57
2024/02/16 01:48:16;;;;;;;17.77;9.85;;;;;;;;;;5013491;28;20469;-57
2024/02/16 01:50:44;;;;;;;19.02;10.15;;;;;;;;;;5016812;28;20018;-57
2024/02/16 01:53:11;;;;;;;20.17;9.50;;;;;;;;;;5014420;28;20389;-57
2024/02/16 01:55:36;;;;;;;17.83;9.98;;;;;;;;;;5014362;28;20026;-58
2024/02/16 01:58:01;;;;;;;18.03;10.10;;;;;;;;;;5014189;28;20064;-58
2024/02/16 02:00:27;;;;;;;19.02;10.23;;;;;;;;;;5001347;28;20030;-58
2024/02/16 02:02:52;;;;;;;17.70;9.67;;;;;;;;;;5014048;28;20033;-58
2024/02/16 02:05:17;;;;;;;18.25;10.55;;;;;;;;;;5017136;28;20076;-58
2024/02/16 02:07:44;;;;;;;20.50;10.95;;;;;;;;;;4999354;28;20041;-57
2024/02/16 02:10:12;;;;;;;20.13;10.65;;;;;;;;;;5029653;28;20025;-57
2024/02/16 02:12:37;;;;;;;19.30;10.48;;;;;;;;;;5013947;28;20040;-58
2024/02/16 02:15:03;;;;;;;19.83;11.37;;;;;;;;;;5014106;28;20106;-57
2024/02/16 02:17:28;;;;;;;19.48;10.93;;;;;;;;;;5017343;28;20048;-58
2024/02/16 02:19:53;;;;;;;19.25;10.45;;;;;;;;;;5013793;28;20040;-59
2024/02/16 02:22:19;;;;;;;20.73;11.45;;;;;;;;;;5012832;28;20022;-58
2024/02/16 02:24:45;;;;;;;18.83;10.27;;;;;;;;;;5013298;28;20033;-58
2024/02/16 02:27:11;;;;;;;19.83;11.07;;;;;;;;;;5013820;28;20040;-57
2024/02/16 02:29:36;;;;;;;20.10;11.23;;;;;;;;;;5015729;28;20018;-58
2024/02/16 02:32:01;;;;;;;18.48;10.30;;;;;;;;;;5017616;28;20438;-58
2024/02/16 02:34:26;;;;;;;19.33;10.90;;;;;;;;;;5014518;28;20037;-57
2024/02/16 02:36:52;;;;;;;19.73;10.90;;;;;;;;;;5015775;28;20483;-59
2024/02/16 02:39:17;;;;;;;17.67;10.57;;;;;;;;;;5014954;28;20032;-58
2024/02/16 02:41:43;;;;;;;19.45;11.23;;;;;;;;;;5014215;28;20029;-57
2024/02/16 02:44:08;;;;;;;18.35;10.43;;;;;;;;;;5013763;28;20420;-58
2024/02/16 02:46:33;;;;;;;18.67;10.70;;;;;;;;;;5018829;28;20034;-57
2024/02/16 02:48:58;;;;;;;19.55;10.93;;;;;;;;;;5023137;28;20018;-59
2024/02/16 02:51:23;;;;;;;18.73;10.60;;;;;;;;;;5025948;28;20018;-58
2024/02/16 02:53:49;;;;;;;21.03;11.53;;;;;;;;;;5025535;28;20053;-58
2024/02/16 02:56:14;;;;;;;21.07;10.97;;;;;;;;;;5024718;28;20022;-58
2024/02/16 02:58:39;;;;;;;19.77;11.18;;;;;;;;;;5015053;28;20121;-56
2024/02/16 03:01:05;;;;;;;20.50;11.10;;;;;;;;;;5016376;28;20393;-58
2024/02/16 03:03:30;;;;;;;20.23;10.88;;;;;;;;;;5014684;28;20117;-57
2024/02/16 03:05:55;;;;;;;20.50;10.90;;;;;;;;;;5014124;28;20032;-57
2024/02/16 03:08:20;;;;;;;19.00;11.10;;;;;;;;;;5013522;28;20168;-57
2024/02/16 03:10:45;;;;;;;19.08;10.80;;;;;;;;;;5013196;28;20057;-57
2024/02/16 03:13:12;;;;;;;20.92;10.93;;;;;;;;;;5014117;28;20029;-57
2024/02/16 03:15:39;;;;;;;20.77;11.82;;;;;;;;;;5011243;28;20785;-57
2024/02/16 03:18:08;;;;;;;20.40;11.43;;;;;;;;;;5011600;28;20482;-57
2024/02/16 03:20:34;;;;;;;20.92;12.43;;;;;;;;;;5013066;28;20038;-58
2024/02/16 03:22:59;;;;;;;21.00;11.48;;;;;;;;;;5004412;28;20501;-56
2024/02/16 03:25:25;;;;;;;18.63;11.17;;;;;;;;;;5005658;28;20033;-59
2024/02/16 03:27:50;;;;;;;20.85;11.15;;;;;;;;;;5014987;28;20386;-56
2024/02/16 03:30:16;;;;;;;20.48;11.95;;;;;;;;;;5007093;28;20022;-57
2024/02/16 03:32:41;;;;;;;20.93;11.70;;;;;;;;;;4998686;28;20030;-57
2024/02/16 03:35:06;;;;;;;21.75;11.93;;;;;;;;;;5012744;28;20509;-59
2024/02/16 03:37:31;;;;;;;19.02;11.00;;;;;;;;;;5012698;28;20513;-58
2024/02/16 03:39:57;;;;;;;19.75;11.07;;;;;;;;;;5013110;28;20551;-56
2024/02/16 03:42:22;;;;;;;21.05;11.20;;;;;;;;;;5013387;28;20033;-58
2024/02/16 03:44:47;;;;;;;20.13;11.33;;;;;;;;;;5009036;28;20022;-57
2024/02/16 03:47:12;;;;;;;22.33;12.27;;;;;;;;;;4993213;28;20475;-57
2024/02/16 03:49:38;;;;;;;20.88;11.60;;;;;;;;;;5011128;28;20437;-57
2024/02/16 03:52:04;;;;;;;23.60;11.60;;;;;;;;;;5012457;28;20028;-57
2024/02/16 03:54:29;;;;;;;19.73;11.10;;;;;;;;;;5011981;28;20020;-56
2024/02/16 03:56:55;;;;;;;21.85;11.82;;;;;;;;;;5015530;28;20030;-57
2024/02/16 03:59:20;;;;;;;21.17;11.80;;;;;;;;;;5012531;28;21822;-57
2024/02/16 04:01:46;;;;;;;20.80;11.70;;;;;;;;;;5012141;28;20092;-58
2024/02/16 04:04:11;;;;;;;21.33;11.45;;;;;;;;;;4995748;28;20020;-57
2024/02/16 04:06:36;;;;;;;23.23;12.43;;;;;;;;;;5013109;28;20117;-59
2024/02/16 04:09:01;;;;;;;18.48;10.60;;;;;;;;;;5011825;28;20441;-57
2024/02/16 04:11:29;;;;;;;21.97;11.90;;;;;;;;;;5014954;28;20440;-57
2024/02/16 04:13:54;;;;;;;21.63;11.70;;;;;;;;;;5000586;28;20490;-57
2024/02/16 04:16:22;;;;;;;22.77;12.13;;;;;;;;;;4995989;28;20058;-57
2024/02/16 04:18:47;;;;;;;23.38;12.30;;;;;;;;;;5012472;28;20032;-57
2024/02/16 04:21:12;;;;;;;21.27;11.93;;;;;;;;;;5012365;28;20484;-57
2024/02/16 04:23:37;;;;;;;20.50;11.93;;;;;;;;;;5012982;28;20014;-56
2024/02/16 04:26:02;;;;;;;22.57;12.17;;;;;;;;;;5009293;28;20034;-56
2024/02/16 04:28:27;;;;;;;22.30;12.17;;;;;;;;;;5003315;28;20029;-57
2024/02/16 04:30:53;;;;;;;20.70;12.07;;;;;;;;;;5010754;28;20037;-58
2024/02/16 04:33:18;;;;;;;20.17;12.17;;;;;;;;;;5000901;28;20386;-57
2024/02/16 04:35:46;;;;;;;19.23;10.57;;;;;;;;;;5015608;28;20085;-56
2024/02/16 04:38:11;;;;;;;23.80;12.60;;;;;;;;;;5017129;28;20026;-58
2024/02/16 04:40:37;;;;;;;21.38;12.10;;;;;;;;;;5014212;28;20029;-56
2024/02/16 04:43:02;;;;;;;21.35;11.95;;;;;;;;;;5014380;28;20037;-57
2024/02/16 04:45:30;;;;;;;22.83;12.70;;;;;;;;;;5013765;28;20052;-57
2024/02/16 04:47:55;;;;;;;18.88;11.73;;;;;;;;;;5012473;28;20030;-56
2024/02/16 04:50:20;;;;;;;21.77;12.52;;;;;;;;;;5011204;28;20108;-57
2024/02/16 04:52:45;;;;;;;21.05;10.98;;;;;;;;;;5011059;28;20029;-56
2024/02/16 04:55:11;;;;;;;21.25;12.32;;;;;;;;;;5011722;28;20018;-58
2024/02/16 04:57:36;;;;;;;23.40;12.17;;;;;;;;;;5014475;28;20475;-59
2024/02/16 05:00:01;;;;;;;22.77;12.23;;;;;;;;;;5003873;28;20529;-57
2024/02/16 05:02:26;;;;;;;19.20;11.50;;;;;;;;;;5005361;28;20023;-57
2024/02/16 05:04:51;;;;;;;20.90;12.38;;;;;;;;;;5014339;28;20014;-57
2024/02/16 05:07:16;;;;;;;21.03;12.67;;;;;;;;;;5011700;28;20034;-57
2024/02/16 05:09:43;;;;;;;22.02;12.90;;;;;;;;;;5011320;28;20511;-57
2024/02/16 05:12:08;;;;;;;21.98;12.05;;;;;;;;;;5014304;28;20022;-57
2024/02/16 05:14:34;;;;;;;20.38;12.00;;;;;;;;;;5016794;28;20041;-57
2024/02/16 05:16:59;;;;;;;24.05;13.00;;;;;;;;;;5010376;28;20508;-58
2024/02/16 05:19:24;;;;;;;21.83;12.57;;;;;;;;;;5008665;28;20022;-57
2024/02/16 05:21:49;;;;;;;23.50;12.15;;;;;;;;;;5008893;28;20041;-57
2024/02/16 05:24:14;;;;;;;22.23;12.27;;;;;;;;;;5009872;28;20438;-57
2024/02/16 05:26:39;;;;;;;19.98;11.10;;;;;;;;;;5009839;28;20025;-57
2024/02/16 05:29:04;;;;;;;20.00;12.20;;;;;;;;;;5003834;28;20028;-57
2024/02/16 05:31:31;;;;;;;20.53;12.80;;;;;;;;;;5007973;28;20038;-57
2024/02/16 05:33:56;;;;;;;21.77;12.63;;;;;;;;;;5007219;28;20140;-57
2024/02/16 05:36:24;;;;;;;20.77;12.40;;;;;;;;;;5006773;28;20097;-57
2024/02/16 05:38:49;;;;;;;20.60;11.30;;;;;;;;;;5006005;28;20422;-57
2024/02/16 05:41:20;;;;;;;21.50;11.97;;;;;;;;;;5006112;28;20054;-58
2024/02/16 05:43:45;;;;;;;21.38;12.25;;;;;;;;;;5006922;28;20022;-57
2024/02/16 05:46:14;;;;;;;20.57;11.83;;;;;;;;;;5006987;28;20383;-58
2024/02/16 05:48:40;;;;;;;19.58;11.77;;;;;;;;;;5005986;28;20053;-58
2024/02/16 05:51:05;;;;;;;19.90;12.00;;;;;;;;;;5006973;28;20046;-58
2024/02/16 05:53:31;;;;;;;19.55;11.75;;;;;;;;;;5005945;28;20025;-57
2024/02/16 05:55:56;;;;;;;22.55;13.43;;;;;;;;;;5007142;28;20026;-57
2024/02/16 05:58:22;;;;;;;21.35;11.85;;;;;;;;;;5012085;28;20021;-59
2024/02/16 06:00:48;;;;;;;20.10;12.13;;;;;;;;;;5000728;28;20084;-57
2024/02/16 06:03:13;;;;;;;23.50;12.90;;;;;;;;;;5004581;28;20034;-58
2024/02/16 06:05:40;;;;;;;22.27;12.77;;;;;;;;;;5005338;28;20104;-57
2024/02/16 06:08:05;;;;;;;21.95;11.20;;;;;;;;;;5006787;28;20398;-57
2024/02/16 06:10:31;;;;;;;23.40;12.10;;;;;;;;;;5007058;28;20025;-57
2024/02/16 06:12:56;;;;;;;23.85;11.95;;;;;;;;;;5006669;28;20025;-57
2024/02/16 06:15:21;;;;;;;23.63;13.07;;;;;;;;;;5008778;28;20080;-57
2024/02/16 06:17:48;;;;;;;22.00;12.13;;;;;;;;;;5007036;28;20061;-58
2024/02/16 06:20:14;;;;;;;23.42;12.27;;;;;;;;;;5007721;28;20018;-57
2024/02/16 06:22:39;;;;;;;21.08;11.65;;;;;;;;;;5007984;28;20033;-58
2024/02/16 06:25:05;;;;;;;22.60;12.57;;;;;;;;;;5009861;28;20072;-57
2024/02/16 06:27:30;;;;;;;20.98;11.45;;;;;;;;;;5008576;28;20049;-57
2024/02/16 06:29:55;;;;;;;22.88;12.00;;;;;;;;;;5009700;28;20482;-57
2024/02/16 06:32:20;;;;;;;22.48;12.25;;;;;;;;;;5009581;28;20025;-57
2024/02/16 06:34:46;;;;;;;22.38;11.95;;;;;;;;;;5013232;28;20482;-57
2024/02/16 06:37:11;;;;;;;25.08;13.25;;;;;;;;;;5005913;28;20030;-57
2024/02/16 06:39:36;;;;;;;22.02;12.55;;;;;;;;;;5013372;28;20072;-56
2024/02/16 06:42:01;;;;;;;26.67;13.43;;;;;;;;;;5013359;28;20054;-56
2024/02/16 06:44:26;;;;;;;24.60;12.07;;;;;;;;;;5013187;28;20034;-57
2024/02/16 06:46:52;;;;;;;23.98;14.05;;;;;;;;;;5013689;28;20084;-58
2024/02/16 06:49:17;;;;;;;23.03;12.30;;;;;;;;;;5013601;28;20014;-57
2024/02/16 06:51:44;;;;;;;24.27;12.48;;;;;;;;;;5013021;28;20018;-57
2024/02/16 06:54:09;;;;;;;24.77;14.02;;;;;;;;;;5011401;28;20027;-57
2024/02/16 06:56:35;;;;;;;23.20;12.95;;;;;;;;;;5016423;28;20037;-58
2024/02/16 06:59:00;;;;;;;23.88;12.80;;;;;;;;;;5021257;28;20403;-57
2024/02/16 07:01:27;;;;;;;23.80;13.17;;;;;;;;;;5011406;28;20542;-58
2024/02/16 07:03:52;;;;;;;23.88;13.07;;;;;;;;;;5014910;28;20022;-58
2024/02/16 07:06:17;;;;;;;24.45;13.25;;;;;;;;;;5012790;28;20489;-57
2024/02/16 07:08:43;;;;;;;23.53;12.87;;;;;;;;;;5014919;28;20030;-57
2024/02/16 07:11:11;;;;;;;22.75;12.50;;;;;;;;;;5015502;28;20038;-58
2024/02/16 07:13:36;;;;;;;23.85;14.13;;;;;;;;;;5015113;28;20371;-57
2024/02/16 07:16:03;;;;;;;23.13;12.57;;;;;;;;;;5012318;28;20662;-58
2024/02/16 07:18:30;;;;;;;25.40;12.68;;;;;;;;;;5012019;28;20497;-58
2024/02/16 07:20:55;;;;;;;23.92;12.57;;;;;;;;;;5005237;28;20089;-58
2024/02/16 07:23:20;;;;;;;26.10;13.20;;;;;;;;;;5003482;28;20783;-57
2024/02/16 07:25:45;;;;;;;23.73;12.80;;;;;;;;;;5009760;28;20029;-58
2024/02/16 07:28:11;;;;;;;23.15;13.32;;;;;;;;;;5010381;28;20100;-58
2024/02/16 07:30:39;;;;;;;21.92;12.48;;;;;;;;;;5011205;28;20095;-57
2024/02/16 07:33:07;;;;;;;21.73;12.10;;;;;;;;;;5011432;28;20776;-59
2024/02/16 07:35:35;;;;;;;23.48;12.68;;;;;;;;;;5005306;28;20543;-58
2024/02/16 07:38:01;;;;;;;25.73;13.27;;;;;;;;;;5004316;28;20910;-58
2024/02/16 07:40:27;;;;;;;22.65;12.65;;;;;;;;;;4992744;28;20038;-58
2024/02/16 07:42:52;;;;;;;26.80;14.07;;;;;;;;;;4999405;28;20018;-58
2024/02/16 07:45:17;;;;;;;23.07;12.87;;;;;;;;;;5029030;28;20040;-59
2024/02/16 07:47:42;;;;;;;23.90;13.20;;;;;;;;;;5020626;28;20026;-57
2024/02/16 07:50:08;;;;;;;23.70;12.73;;;;;;;;;;5009031;28;20040;-57
2024/02/16 07:52:33;;;;;;;21.35;11.73;;;;;;;;;;5008826;28;20375;-57
2024/02/16 07:54:58;;;;;;;25.07;13.17;;;;;;;;;;5009172;28;20421;-57
2024/02/16 07:57:23;;;;;;;21.27;11.95;;;;;;;;;;5005201;28;20121;-58
2024/02/16 07:59:49;;;;;;;21.53;12.40;;;;;;;;;;5006011;28;20041;-57
2024/02/16 08:02:15;;;;;;;23.83;12.73;;;;;;;;;;5005275;28;20083;-57
2024/02/16 08:04:41;;;;;;;;;;;;;;;;;;5008907;28;20032;-58
2024/02/16 08:07:06;;;;;;;21.88;12.02;;;;;;;;;;5006756;28;19917;-56
2024/02/16 08:09:31;;;;;;;20.83;11.27;;;;;;;;;;5008411;28;20809;-57
2024/02/16 08:11:56;;;;;;;22.52;12.40;;;;;;;;;;5007580;28;20057;-57
2024/02/16 08:14:21;;;;;;;23.57;12.63;;;;;;;;;;5008352;28;20500;-57
2024/02/16 08:16:46;;;;;;;23.17;13.10;;;;;;;;;;5014465;28;20029;-58
2024/02/16 08:19:13;;;;;;;20.90;12.70;;;;;;;;;;5008850;28;20026;-58
2024/02/16 08:21:38;;;;;;;21.67;11.48;;;;;;;;;;5007449;28;20117;-57
2024/02/16 08:24:04;;;;;;;23.90;12.98;;;;;;;;;;5007364;28;20133;-57
2024/02/16 08:26:29;;;;;;;20.20;11.80;;;;;;;;;;5009307;28;20089;-57
2024/02/16 08:28:54;;;;;;;19.70;11.30;;;;;;;;;;5010107;28;20037;-56
2024/02/16 08:31:20;;;;;;;19.88;11.95;;;;;;;;;;5019175;28;20394;-56
2024/02/16 08:33:46;;;;;;;23.15;12.77;;;;;;;;;;5007963;28;20022;-56
2024/02/16 08:36:11;;;;;;;;;;;;;;;;;;5012496;28;20032;-57
2024/02/16 08:38:36;;;;;;;20.48;11.25;;;;;;;;;;5011034;28;19996;-56
2024/02/16 08:41:03;;;;;;;23.40;13.27;;;;;;;;;;5012299;28;20026;-56
2024/02/16 08:43:28;;;;;;;24.92;12.80;;;;;;;;;;5009643;28;20022;-57
2024/02/16 08:45:53;;;;;;;21.33;12.33;;;;;;;;;;5015765;28;20038;-57
2024/02/16 08:48:18;;;;;;;24.00;13.97;;;;;;;;;;5010533;28;20024;-57
2024/02/16 08:50:43;;;;;;;24.73;13.57;;;;;;;;;;5012750;28;20355;-57
2024/02/16 08:53:10;;;;;;;24.90;14.10;;;;;;;;;;5012677;28;20507;-57
2024/02/16 08:55:35;;;;;;;23.15;13.45;;;;;;;;;;5011965;28;20025;-56
2024/02/16 08:58:00;;;;;;;22.87;12.80;;;;;;;;;;5011712;28;20109;-58
2024/02/16 09:00:26;;;;;;;24.67;13.80;;;;;;;;;;5017377;28;20026;-56
2024/02/16 09:02:52;;;;;;;26.25;14.52;;;;;;;;;;5018310;28;20510;-57
2024/02/16 09:05:18;;;;;;;22.37;13.27;;;;;;;;;;5015344;28;20437;-56
2024/02/16 09:07:43;;;;;;;23.77;13.73;;;;;;;;;;5012582;28;20028;-57
2024/02/16 09:10:08;;;;;;;21.77;13.03;;;;;;;;;;5005732;28;20414;-56
2024/02/16 09:12:34;;;;;;;20.93;13.50;;;;;;;;;;5011339;28;20017;-56
2024/02/16 09:14:59;;;;;;;22.48;13.50;;;;;;;;;;5012060;28;20068;-58
2024/02/16 09:17:24;;;;;;;22.83;13.95;;;;;;;;;;5019795;28;20032;-57
2024/02/16 09:19:49;;;;;;;23.20;13.60;;;;;;;;;;5011395;28;20037;-57
2024/02/16 09:22:14;;;;;;;22.05;13.63;;;;;;;;;;5012141;28;20018;-56
2024/02/16 09:24:40;;;;;;;22.40;14.27;;;;;;;;;;5010313;28;20100;-57
2024/02/16 09:27:06;;;;;;;21.48;13.68;;;;;;;;;;5010503;28;20049;-58
2024/02/16 09:29:32;;;;;;;22.63;12.80;;;;;;;;;;5012949;28;20385;-58
2024/02/16 09:31:57;;;;;;;21.20;13.00;;;;;;;;;;5019334;28;20018;-57
2024/02/16 09:34:23;;;;;;;25.00;14.17;;;;;;;;;;5020067;28;20017;-59
2024/02/16 09:36:48;;;;;;;23.30;13.52;;;;;;;;;;5023083;28;20025;-57
2024/02/16 09:39:13;;;;;;;21.02;13.52;;;;;;;;;;5024543;28;20085;-58
2024/02/16 09:41:41;;;;;;;22.77;14.03;;;;;;;;;;5015587;28;20034;-58
2024/02/16 09:44:06;;;;;;;23.85;12.82;;;;;;;;;;5017518;28;20018;-58
2024/02/16 09:46:32;;;;;;;21.02;12.35;;;;;;;;;;5011063;28;20029;-60
2024/02/16 09:49:00;;;;;;;20.15;12.77;;;;;;;;;;5011259;28;20018;-58
2024/02/16 09:51:25;;;;;;;20.20;13.23;;;;;;;;;;5010061;28;20029;-58
2024/02/16 09:53:55;;;;;;;20.83;12.10;;;;;;;;;;5011289;28;20025;-58
2024/02/16 09:56:20;;;;;;;21.00;12.98;;;;;;;;;;4996125;28;20034;-60
2024/02/16 09:58:46;;;;;;;22.65;12.95;;;;;;;;;;5016556;28;20033;-58
2024/02/16 10:01:17;;;;;;;20.95;12.35;;;;;;;;;;5011614;28;20563;-57
2024/02/16 10:03:43;;;;;;;22.10;12.90;;;;;;;;;;5005782;28;20398;-57
2024/02/16 10:06:09;;;;;;;21.25;13.10;;;;;;;;;;5011322;28;20030;-57
2024/02/16 10:08:34;;;;;;;22.90;13.85;;;;;;;;;;5012818;28;20026;-58
2024/02/16 10:11:03;;;;;;;20.95;13.15;;;;;;;;;;5015088;28;20457;-59
2024/02/16 10:13:28;;;;;;;21.73;12.60;;;;;;;;;;5015305;28;20120;-58
2024/02/16 10:16:03;;;;;;;21.00;13.07;;;;;;;;;;5016103;28;20061;-56
2024/02/16 10:18:29;;;;;;;21.08;13.45;;;;;;;;;;5020891;28;20025;-57
2024/02/16 10:20:54;;;;;;;21.13;12.50;;;;;;;;;;5018609;28;20026;-57
2024/02/16 10:23:19;;;;;;;19.05;12.15;;;;;;;;;;5017526;28;20382;-57
2024/02/16 10:25:44;;;;;;;19.50;12.20;;;;;;;;;;5017307;28;20470;-58
2024/02/16 10:28:11;;;;;;;19.70;13.43;;;;;;;;;;5017739;28;20056;-58
2024/02/16 10:30:38;;;;;;;19.92;12.85;;;;;;;;;;5018255;28;20049;-59
2024/02/16 10:33:03;;;;;;;;;;;;;;;;;;5019505;28;20029;-58
2024/02/16 10:35:29;;;;;;;20.67;12.30;;;;;;;;;;5017892;28;19965;-56
2024/02/16 10:37:55;;;;;;;19.95;11.65;;;;;;;;;;5016803;28;20022;-59
2024/02/16 10:40:22;;;;;;;21.48;12.05;;;;;;;;;;5015428;28;20026;-58
2024/02/16 10:42:49;;;;;;;19.63;12.05;;;;;;;;;;5017173;28;20033;-57
2024/02/16 10:45:15;;;;;;;17.85;11.30;;;;;;;;;;5018154;28;20026;-58
2024/02/16 10:47:40;;;;;;;19.02;11.38;;;;;;;;;;5017374;28;20034;-57
2024/02/16 10:50:06;;;;;;;18.53;11.57;;;;;;;;;;5015506;28;20088;-58
2024/02/16 10:52:32;;;;;;;17.73;11.68;;;;;;;;;;5017639;28;20014;-57
2024/02/16 10:54:57;;;;;;;18.85;11.95;;;;;;;;;;5013688;28;20029;-58
2024/02/16 10:57:23;;;;;;;18.65;12.15;;;;;;;;;;5013805;28;20022;-56
2024/02/16 10:59:52;;;;;;;20.80;12.65;;;;;;;;;;5013963;28;20164;-59
2024/02/16 11:02:17;;;;;;;19.58;12.98;;;;;;;;;;5013935;28;20026;-57
2024/02/16 11:04:45;;;;;;;18.33;11.85;;;;;;;;;;5012560;28;20018;-57
2024/02/16 11:07:11;;;;;;;19.20;12.02;;;;;;;;;;5020958;28;20115;-58
2024/02/16 11:09:38;;;;;;;20.10;12.40;;;;;;;;;;5013246;28;20024;-57
2024/02/16 11:12:04;;;;;;;18.75;12.15;;;;;;;;;;5013350;28;20104;-56
2024/02/16 11:14:36;;;;;;;20.00;12.70;;;;;;;;;;5013318;28;20052;-57
2024/02/16 11:17:01;;;;;;;20.00;11.68;;;;;;;;;;5013632;28;20025;-57
2024/02/16 11:19:26;;;;;;;17.70;11.95;;;;;;;;;;5012948;28;20389;-57
2024/02/16 11:21:57;;;;;;;18.87;12.63;;;;;;;;;;5012795;28;20045;-57
2024/02/16 11:24:29;;;;;;;17.85;11.15;;;;;;;;;;5018783;28;20024;-58
2024/02/16 11:26:55;;;;;;;21.20;13.20;;;;;;;;;;5013502;28;20021;-58
2024/02/16 11:29:20;;;;;;;19.90;11.18;;;;;;;;;;5019955;28;20037;-57
2024/02/16 11:31:45;;;;;;;20.03;12.83;;;;;;;;;;5008613;28;20053;-58
2024/02/16 11:34:20;;;;;;;19.55;12.88;;;;;;;;;;5019923;28;20022;-58
2024/02/16 11:36:45;;;;;;;19.05;12.18;;;;;;;;;;5016417;28;20412;-58
2024/02/16 11:39:16;;;;;;;18.77;12.30;;;;;;;;;;5009024;28;20060;-57
2024/02/16 11:41:41;;;;;;;19.55;12.82;;;;;;;;;;5011116;28;20026;-57
2024/02/16 11:44:07;;;;;;;17.65;10.40;;;;;;;;;;5012077;28;20104;-57
2024/02/16 11:46:32;;;;;;;17.55;11.32;;;;;;;;;;5012879;28;20068;-57
2024/02/16 11:49:05;;;;;;;17.92;12.15;;;;;;;;;;5012155;28;20034;-58
2024/02/16 11:51:30;;;;;;;17.40;11.30;;;;;;;;;;5017704;28;20014;-57
2024/02/16 11:53:57;;;;;;;16.90;10.40;;;;;;;;;;5030835;28;20099;-57
2024/02/16 11:56:24;;;;;;;19.88;11.98;;;;;;;;;;5021390;28;20034;-58
2024/02/16 11:58:49;;;;;;;19.67;12.85;;;;;;;;;;5008025;28;20062;-58
2024/02/16 12:01:14;;;;;;;19.97;12.70;;;;;;;;;;5012297;28;20104;-59
2024/02/16 12:03:40;;;;;;;19.30;12.65;;;;;;;;;;5006825;28;20029;-56
2024/02/16 12:06:06;;;;;;;18.90;11.98;;;;;;;;;;5002535;28;20026;-57
2024/02/16 12:08:34;;;;;;;18.07;10.63;;;;;;;;;;4999496;28;20022;-58
2024/02/16 12:10:59;;;;;;;17.38;11.60;;;;;;;;;;5002255;28;20926;-57
2024/02/16 12:13:26;;;;;;;19.47;13.10;;;;;;;;;;4999684;28;20052;-56
2024/02/16 12:15:51;;;;;;;19.05;12.00;;;;;;;;;;5001892;28;20029;-57
2024/02/16 12:18:24;;;;;;;18.43;12.00;;;;;;;;;;5006841;28;20032;-58
2024/02/16 12:20:49;;;;;;;;;;;;;;;;;;5008606;28;20093;-58
2024/02/16 12:23:14;;;;;;;17.73;10.77;;;;;;;;;;5016998;28;20305;-57
2024/02/16 12:25:39;;;;;;;19.33;12.65;;;;;;;;;;5012932;28;20038;-58
2024/02/16 12:28:05;;;;;;;18.88;12.38;;;;;;;;;;5010254;28;20390;-57
2024/02/16 12:30:30;;;;;;;18.60;12.10;;;;;;;;;;5001537;28;20026;-57
2024/02/16 12:32:56;;;;;;;17.87;11.87;;;;;;;;;;5003389;28;20037;-57
2024/02/16 12:35:21;;;;;;;19.90;11.98;;;;;;;;;;5001681;28;20034;-57
2024/02/16 12:37:47;;;;;;;19.50;11.38;;;;;;;;;;5004261;28;20034;-58
2024/02/16 12:40:12;;;;;;;18.15;11.27;;;;;;;;;;4999992;28;20030;-57
2024/02/16 12:42:38;;;;;;;18.90;12.50;;;;;;;;;;4997404;28;20041;-57
2024/02/16 12:45:04;;;;;;;17.98;11.07;;;;;;;;;;4994629;28;20104;-57
2024/02/16 12:47:29;;;;;;;17.60;11.32;;;;;;;;;;4996345;28;20030;-58
2024/02/16 12:49:56;;;;;;;18.33;11.70;;;;;;;;;;4998616;28;20025;-57
2024/02/16 12:52:24;;;;;;;16.25;10.57;;;;;;;;;;5011161;28;20022;-58
2024/02/16 12:54:49;;;;;;;15.80;10.00;;;;;;;;;;4999615;28;20173;-59
2024/02/16 12:57:14;;;;;;;16.23;9.73;;;;;;;;;;4999414;28;20114;-58
2024/02/16 12:59:40;;;;;;;16.55;9.65;;;;;;;;;;4999541;28;20030;-58
2024/02/16 13:02:05;;;;;;;16.75;9.07;;;;;;;;;;4998379;28;20010;-58
2024/02/16 13:04:32;;;;;;;15.73;9.13;;;;;;;;;;4998646;28;20033;-57
2024/02/16 13:06:57;;;;;;;15.18;8.85;;;;;;;;;;4995533;28;20194;-57
2024/02/16 13:09:22;;;;;;;14.50;8.68;;;;;;;;;;4999095;28;20026;-57
2024/02/16 13:11:54;;;;;;;14.77;8.03;;;;;;;;;;4997417;28;20129;-55
2024/02/16 13:14:19;;;;;;;16.83;8.60;;;;;;;;;;5002188;28;20112;-56
2024/02/16 13:16:44;;;;;;;13.80;8.23;;;;;;;;;;5008300;28;20100;-56
2024/02/16 13:19:09;;;;;;;14.40;8.65;;;;;;;;;;5008842;28;20026;-57
2024/02/16 13:21:34;;;;;;;14.63;8.98;;;;;;;;;;5006266;28;20540;-58
2024/02/16 13:23:59;;;;;;;13.13;7.90;;;;;;;;;;5008650;28;20033;-57
2024/02/16 13:26:24;;;;;;;14.00;8.97;;;;;;;;;;5007310;28;20041;-58
2024/02/16 13:28:50;;;;;;;12.27;8.05;;;;;;;;;;5009376;28;20444;-56
2024/02/16 13:31:15;;;;;;;13.10;8.43;;;;;;;;;;5010268;28;20026;-58
2024/02/16 13:33:40;;;;;;;16.48;9.25;;;;;;;;;;5008074;28;20117;-58
2024/02/16 13:36:06;;;;;;;14.80;8.70;;;;;;;;;;5007920;28;21687;-58
2024/02/16 13:38:31;;;;;;;14.27;8.60;;;;;;;;;;5010362;28;20401;-57
2024/02/16 13:40:56;;;;;;;17.60;8.68;;;;;;;;;;5007517;28;20113;-59
2024/02/16 13:43:21;;;;;;;14.63;8.63;;;;;;;;;;5007162;28;20030;-59
2024/02/16 13:45:50;;;;;;;14.97;9.57;;;;;;;;;;5008004;28;20026;-59
2024/02/16 13:48:16;;;;;;;14.60;8.88;;;;;;;;;;5011740;28;20028;-59
2024/02/16 13:50:43;;;;;;;16.47;9.70;;;;;;;;;;5014885;28;20114;-59
2024/02/16 13:53:08;;;;;;;17.63;9.93;;;;;;;;;;5013295;28;20080;-57
2024/02/16 13:55:33;;;;;;;15.50;9.67;;;;;;;;;;5014438;28;20022;-58
2024/02/16 13:57:58;;;;;;;17.50;10.02;;;;;;;;;;5013536;28;20013;-58
2024/02/16 14:00:23;;;;;;;17.02;10.75;;;;;;;;;;5014847;28;20104;-59
2024/02/16 14:02:49;;;;;;;17.17;11.40;;;;;;;;;;5011838;28;20030;-58
2024/02/16 14:05:14;;;;;;;18.35;11.75;;;;;;;;;;5014792;28;20033;-59
2024/02/16 14:07:39;;;;;;;18.30;11.70;;;;;;;;;;5014328;28;20061;-58
2024/02/16 14:10:05;;;;;;;19.42;12.57;;;;;;;;;;5015753;28;20013;-58
2024/02/16 14:12:30;;;;;;;21.20;13.07;;;;;;;;;;5010759;28;20115;-57